sensor_id;sensor_type;location;lat;lon;timestamp;temperature;humidity
3086;DHT22;52812;48.960;9.108;2023-06-26T00:00:12;16.60;99.90
3086;DHT22;52812;48.960;9.108;2023-06-26T00:02:38;16.60;99.90
3086;DHT22;52812;48.960;9.108;2023-06-26T00:05:04;16.50;99.90
3086;DHT22;52812;48.960;9.108;2023-06-26T00:07:30;16.40;99.90
3086;DHT22;52812;48.960;9.108;2023-06-26T00:09:57;16.50;99.90
3086;DHT22;52812;48.960;9.108;2023-06-26T00:12:24;16.40;99.90
3086;DHT22;52812;48.960;9.108;2023-06-26T00:14:49;16.40;99.90
3086;DHT22;52812;48.960;9.108;2023-06-26T00:17:15;16.30;99.90
3086;DHT22;52812;48.960;9.108;2023-06-26T00:19:40;16.30;99.90
3086;DHT22;52812;48.960;9.108;2023-06-26T00:22:06;16.30;99.90
3086;DHT22;52812;48.960;9.108;2023-06-26T00:24:31;16.20;99.90
3086;DHT22;52812;48.960;9.108;2023-06-26T00:26:57;16.20;99.90
3086;DHT22;52812;48.960;9.108;2023-06-26T00:29:24;16.20;99.90
3086;DHT22;52812;48.960;9.108;2023-06-26T00:31:49;16.20;99.90
3086;DHT22;52812;48.960;9.108;2023-06-26T00:34:15;16.20;99.90
3086;DHT22;52812;48.960;9.108;2023-06-26T00:36:41;16.10;99.90
3086;DHT22;52812;48.960;9.108;2023-06-26T00:39:09;16.00;99.90
3086;DHT22;52812;48.960;9.108;2023-06-26T00:41:36;16.10;99.90
3086;DHT22;52812;48.960;9.108;2023-06-26T00:44:03;16.10;99.90
3086;DHT22;52812;48.960;9.108;2023-06-26T00:46:28;16.00;99.90
3086;DHT22;52812;48.960;9.108;2023-06-26T00:48:55;16.00;99.90
3086;DHT22;52812;48.960;9.108;2023-06-26T00:51:21;16.00;99.90
3086;DHT22;52812;48.960;9.108;2023-06-26T00:53:48;16.00;99.90
3086;DHT22;52812;48.960;9.108;2023-06-26T00:56:14;15.90;99.90
3086;DHT22;52812;48.960;9.108;2023-06-26T00:58:40;15.90;99.90
3086;DHT22;52812;48.960;9.108;2023-06-26T01:01:06;15.90;99.90
3086;DHT22;52812;48.960;9.108;2023-06-26T01:03:34;15.80;99.90
3086;DHT22;52812;48.960;9.108;2023-06-26T01:06:00;15.80;99.90
3086;DHT22;52812;48.960;9.108;2023-06-26T01:08:27;15.70;99.90
3086;DHT22;52812;48.960;9.108;2023-06-26T01:10:53;15.70;99.90
3086;DHT22;52812;48.960;9.108;2023-06-26T01:13:18;15.70;99.90
3086;DHT22;52812;48.960;9.108;2023-06-26T01:15:46;15.70;99.90
3086;DHT22;52812;48.960;9.108;2023-06-26T01:18:11;15.60;99.90
3086;DHT22;52812;48.960;9.108;2023-06-26T01:20:38;15.60;99.90
3086;DHT22;52812;48.960;9.108;2023-06-26T01:23:20;15.50;99.90
3086;DHT22;52812;48.960;9.108;2023-06-26T01:28:41;15.50;99.90
3086;DHT22;52812;48.960;9.108;2023-06-26T01:31:07;15.50;99.90
3086;DHT22;52812;48.960;9.108;2023-06-26T01:33:34;15.50;99.90
3086;DHT22;52812;48.960;9.108;2023-06-26T01:36:00;15.40;99.90
3086;DHT22;52812;48.960;9.108;2023-06-26T01:38:26;15.40;99.90
3086;DHT22;52812;48.960;9.108;2023-06-26T01:40:52;15.40;99.90
3086;DHT22;52812;48.960;9.108;2023-06-26T01:45:48;15.30;99.90
3086;DHT22;52812;48.960;9.108;2023-06-26T01:48:16;15.20;99.90
3086;DHT22;52812;48.960;9.108;2023-06-26T01:50:45;15.20;99.90
3086;DHT22;52812;48.960;9.108;2023-06-26T01:53:13;15.20;99.90
3086;DHT22;52812;48.960;9.108;2023-06-26T01:55:54;15.20;99.90
3086;DHT22;52812;48.960;9.108;2023-06-26T01:58:23;15.10;99.90
3086;DHT22;52812;48.960;9.108;2023-06-26T02:00:50;15.10;99.90
3086;DHT22;52812;48.960;9.108;2023-06-26T02:03:16;15.10;99.90
3086;DHT22;52812;48.960;9.108;2023-06-26T02:05:42;15.10;99.90
3086;DHT22;52812;48.960;9.108;2023-06-26T02:08:08;15.20;99.90
3086;DHT22;52812;48.960;9.108;2023-06-26T02:10:34;15.20;99.90
3086;DHT22;52812;48.960;9.108;2023-06-26T02:13:00;15.20;99.90
3086;DHT22;52812;48.960;9.108;2023-06-26T02:15:26;15.20;99.90
3086;DHT22;52812;48.960;9.108;2023-06-26T02:17:51;15.20;99.90
3086;DHT22;52812;48.960;9.108;2023-06-26T02:20:17;15.20;99.90
3086;DHT22;52812;48.960;9.108;2023-06-26T02:22:43;15.20;99.90
3086;DHT22;52812;48.960;9.108;2023-06-26T02:25:11;15.20;99.90
3086;DHT22;52812;48.960;9.108;2023-06-26T02:27:38;15.20;99.90
3086;DHT22;52812;48.960;9.108;2023-06-26T02:30:04;15.10;99.90
3086;DHT22;52812;48.960;9.108;2023-06-26T02:32:30;15.00;99.90
3086;DHT22;52812;48.960;9.108;2023-06-26T02:34:56;15.00;99.90
3086;DHT22;52812;48.960;9.108;2023-06-26T02:37:21;15.00;99.90
3086;DHT22;52812;48.960;9.108;2023-06-26T02:39:47;14.90;99.90
3086;DHT22;52812;48.960;9.108;2023-06-26T02:42:12;14.80;99.90
3086;DHT22;52812;48.960;9.108;2023-06-26T02:44:38;14.80;99.90
3086;DHT22;52812;48.960;9.108;2023-06-26T02:47:03;14.80;99.90
3086;DHT22;52812;48.960;9.108;2023-06-26T02:49:29;14.80;99.90
3086;DHT22;52812;48.960;9.108;2023-06-26T02:51:55;14.80;99.90
3086;DHT22;52812;48.960;9.108;2023-06-26T02:54:20;14.80;99.90
3086;DHT22;52812;48.960;9.108;2023-06-26T02:56:46;14.70;99.90
3086;DHT22;52812;48.960;9.108;2023-06-26T02:59:11;14.70;99.90
3086;DHT22;52812;48.960;9.108;2023-06-26T03:01:37;14.60;99.90
3086;DHT22;52812;48.960;9.108;2023-06-26T03:04:03;14.50;99.90
3086;DHT22;52812;48.960;9.108;2023-06-26T03:06:29;14.50;99.90
3086;DHT22;52812;48.960;9.108;2023-06-26T03:08:55;14.50;99.90
3086;DHT22;52812;48.960;9.108;2023-06-26T03:11:20;14.50;99.90
3086;DHT22;52812;48.960;9.108;2023-06-26T03:13:46;14.50;99.90
3086;DHT22;52812;48.960;9.108;2023-06-26T03:16:12;14.50;99.90
3086;DHT22;52812;48.960;9.108;2023-06-26T03:18:38;14.50;99.90
3086;DHT22;52812;48.960;9.108;2023-06-26T03:21:04;14.50;99.90
3086;DHT22;52812;48.960;9.108;2023-06-26T03:23:29;14.50;99.90
3086;DHT22;52812;48.960;9.108;2023-06-26T03:25:55;14.50;99.90
3086;DHT22;52812;48.960;9.108;2023-06-26T03:28:20;14.50;99.90
3086;DHT22;52812;48.960;9.108;2023-06-26T03:30:46;14.50;99.90
3086;DHT22;52812;48.960;9.108;2023-06-26T03:33:11;14.40;99.90
3086;DHT22;52812;48.960;9.108;2023-06-26T03:35:37;14.40;99.90
3086;DHT22;52812;48.960;9.108;2023-06-26T03:38:04;14.40;99.90
3086;DHT22;52812;48.960;9.108;2023-06-26T03:40:29;14.40;99.90
3086;DHT22;52812;48.960;9.108;2023-06-26T03:42:55;14.40;99.90
3086;DHT22;52812;48.960;9.108;2023-06-26T03:45:21;14.40;99.90
3086;DHT22;52812;48.960;9.108;2023-06-26T03:47:46;14.40;99.90
3086;DHT22;52812;48.960;9.108;2023-06-26T03:50:17;14.50;99.90
3086;DHT22;52812;48.960;9.108;2023-06-26T03:52:43;14.50;99.90
3086;DHT22;52812;48.960;9.108;2023-06-26T03:55:08;14.60;99.90
3086;DHT22;52812;48.960;9.108;2023-06-26T03:57:34;14.50;99.90
3086;DHT22;52812;48.960;9.108;2023-06-26T04:00:00;14.60;99.90
3086;DHT22;52812;48.960;9.108;2023-06-26T04:02:25;14.60;99.90
3086;DHT22;52812;48.960;9.108;2023-06-26T04:04:51;14.70;99.90
3086;DHT22;52812;48.960;9.108;2023-06-26T04:07:18;14.80;99.90
3086;DHT22;52812;48.960;9.108;2023-06-26T04:09:44;14.90;99.90
3086;DHT22;52812;48.960;9.108;2023-06-26T04:12:09;14.80;99.90
3086;DHT22;52812;48.960;9.108;2023-06-26T04:14:35;14.90;99.90
3086;DHT22;52812;48.960;9.108;2023-06-26T04:17:01;14.90;99.90
3086;DHT22;52812;48.960;9.108;2023-06-26T04:19:29;15.00;99.90
3086;DHT22;52812;48.960;9.108;2023-06-26T04:21:54;15.20;99.90
3086;DHT22;52812;48.960;9.108;2023-06-26T04:24:20;15.30;99.90
3086;DHT22;52812;48.960;9.108;2023-06-26T04:26:45;15.40;99.90
3086;DHT22;52812;48.960;9.108;2023-06-26T04:29:11;15.40;99.90
3086;DHT22;52812;48.960;9.108;2023-06-26T04:31:37;15.60;99.90
3086;DHT22;52812;48.960;9.108;2023-06-26T04:34:03;15.70;99.90
3086;DHT22;52812;48.960;9.108;2023-06-26T04:36:30;15.80;99.90
3086;DHT22;52812;48.960;9.108;2023-06-26T04:38:58;15.90;99.90
3086;DHT22;52812;48.960;9.108;2023-06-26T04:41:24;16.00;99.90
3086;DHT22;52812;48.960;9.108;2023-06-26T04:43:50;16.10;99.90
3086;DHT22;52812;48.960;9.108;2023-06-26T04:46:15;16.20;99.90
3086;DHT22;52812;48.960;9.108;2023-06-26T04:48:41;16.20;99.90
3086;DHT22;52812;48.960;9.108;2023-06-26T04:51:06;16.30;99.90
3086;DHT22;52812;48.960;9.108;2023-06-26T04:53:32;16.40;99.90
3086;DHT22;52812;48.960;9.108;2023-06-26T04:55:58;16.50;99.90
3086;DHT22;52812;48.960;9.108;2023-06-26T04:58:23;16.70;99.90
3086;DHT22;52812;48.960;9.108;2023-06-26T05:00:49;16.80;99.90
3086;DHT22;52812;48.960;9.108;2023-06-26T05:03:16;17.00;99.90
3086;DHT22;52812;48.960;9.108;2023-06-26T05:05:42;17.10;99.90
3086;DHT22;52812;48.960;9.108;2023-06-26T05:08:22;17.20;99.90
3086;DHT22;52812;48.960;9.108;2023-06-26T05:10:48;17.20;99.90
3086;DHT22;52812;48.960;9.108;2023-06-26T05:13:13;17.30;99.90
3086;DHT22;52812;48.960;9.108;2023-06-26T05:15:46;17.50;99.90
3086;DHT22;52812;48.960;9.108;2023-06-26T05:18:12;17.60;99.90
3086;DHT22;52812;48.960;9.108;2023-06-26T05:20:38;17.80;99.90
3086;DHT22;52812;48.960;9.108;2023-06-26T05:23:05;17.80;99.90
3086;DHT22;52812;48.960;9.108;2023-06-26T05:25:31;18.00;99.90
3086;DHT22;52812;48.960;9.108;2023-06-26T05:27:57;18.20;99.90
3086;DHT22;52812;48.960;9.108;2023-06-26T05:30:27;18.30;99.90
3086;DHT22;52812;48.960;9.108;2023-06-26T05:32:53;18.40;99.90
3086;DHT22;52812;48.960;9.108;2023-06-26T05:35:23;18.50;99.90
3086;DHT22;52812;48.960;9.108;2023-06-26T05:37:49;18.50;99.90
3086;DHT22;52812;48.960;9.108;2023-06-26T05:40:17;18.60;99.90
3086;DHT22;52812;48.960;9.108;2023-06-26T05:42:43;18.80;99.90
3086;DHT22;52812;48.960;9.108;2023-06-26T05:45:09;18.90;99.90
3086;DHT22;52812;48.960;9.108;2023-06-26T05:47:35;19.00;99.90
3086;DHT22;52812;48.960;9.108;2023-06-26T05:50:02;19.20;99.90
3086;DHT22;52812;48.960;9.108;2023-06-26T05:52:28;19.30;99.90
3086;DHT22;52812;48.960;9.108;2023-06-26T05:54:53;19.40;99.90
3086;DHT22;52812;48.960;9.108;2023-06-26T05:57:20;19.70;99.90
3086;DHT22;52812;48.960;9.108;2023-06-26T05:59:46;20.00;99.90
3086;DHT22;52812;48.960;9.108;2023-06-26T06:02:13;20.20;99.90
3086;DHT22;52812;48.960;9.108;2023-06-26T06:04:39;20.40;99.90
3086;DHT22;52812;48.960;9.108;2023-06-26T06:07:05;20.70;99.90
3086;DHT22;52812;48.960;9.108;2023-06-26T06:09:30;21.10;99.90
3086;DHT22;52812;48.960;9.108;2023-06-26T06:11:56;22.10;99.90
3086;DHT22;52812;48.960;9.108;2023-06-26T06:14:21;23.10;99.90
3086;DHT22;52812;48.960;9.108;2023-06-26T06:16:47;24.20;99.90
3086;DHT22;52812;48.960;9.108;2023-06-26T06:19:12;24.90;99.90
3086;DHT22;52812;48.960;9.108;2023-06-26T06:21:39;25.20;99.90
3086;DHT22;52812;48.960;9.108;2023-06-26T06:24:05;25.40;99.90
3086;DHT22;52812;48.960;9.108;2023-06-26T06:26:32;25.70;99.90
3086;DHT22;52812;48.960;9.108;2023-06-26T06:28:58;26.20;99.90
3086;DHT22;52812;48.960;9.108;2023-06-26T06:31:23;26.50;99.90
3086;DHT22;52812;48.960;9.108;2023-06-26T06:33:49;27.60;99.90
3086;DHT22;52812;48.960;9.108;2023-06-26T06:36:14;27.50;99.90
3086;DHT22;52812;48.960;9.108;2023-06-26T06:38:43;27.50;99.90
3086;DHT22;52812;48.960;9.108;2023-06-26T06:41:09;28.40;99.90
3086;DHT22;52812;48.960;9.108;2023-06-26T06:43:34;29.40;99.90
3086;DHT22;52812;48.960;9.108;2023-06-26T06:46:01;29.00;99.90
3086;DHT22;52812;48.960;9.108;2023-06-26T06:48:27;29.20;99.90
3086;DHT22;52812;48.960;9.108;2023-06-26T06:50:52;29.70;99.90
3086;DHT22;52812;48.960;9.108;2023-06-26T06:53:18;29.50;99.90
3086;DHT22;52812;48.960;9.108;2023-06-26T06:55:47;29.70;99.90
3086;DHT22;52812;48.960;9.108;2023-06-26T06:58:12;29.60;99.90
3086;DHT22;52812;48.960;9.108;2023-06-26T07:00:38;30.80;99.90
3086;DHT22;52812;48.960;9.108;2023-06-26T07:03:03;30.70;99.90
3086;DHT22;52812;48.960;9.108;2023-06-26T07:05:29;30.90;99.90
3086;DHT22;52812;48.960;9.108;2023-06-26T07:07:55;30.30;99.90
3086;DHT22;52812;48.960;9.108;2023-06-26T07:10:20;30.20;99.90
3086;DHT22;52812;48.960;9.108;2023-06-26T07:12:46;30.10;99.90
3086;DHT22;52812;48.960;9.108;2023-06-26T07:15:12;30.20;99.90
3086;DHT22;52812;48.960;9.108;2023-06-26T07:17:37;30.20;99.90
3086;DHT22;52812;48.960;9.108;2023-06-26T07:20:05;30.20;99.90
3086;DHT22;52812;48.960;9.108;2023-06-26T07:22:36;30.30;99.90
3086;DHT22;52812;48.960;9.108;2023-06-26T07:25:01;30.50;99.90
3086;DHT22;52812;48.960;9.108;2023-06-26T07:27:27;30.70;99.90
3086;DHT22;52812;48.960;9.108;2023-06-26T07:29:53;30.90;99.90
3086;DHT22;52812;48.960;9.108;2023-06-26T07:32:18;31.20;99.90
3086;DHT22;52812;48.960;9.108;2023-06-26T07:34:44;31.20;99.90
3086;DHT22;52812;48.960;9.108;2023-06-26T07:37:09;31.40;99.10
3086;DHT22;52812;48.960;9.108;2023-06-26T07:39:35;31.70;99.70
3086;DHT22;52812;48.960;9.108;2023-06-26T07:42:00;32.00;98.50
3086;DHT22;52812;48.960;9.108;2023-06-26T07:44:26;31.90;98.50
3086;DHT22;52812;48.960;9.108;2023-06-26T07:46:52;32.70;97.60
3086;DHT22;52812;48.960;9.108;2023-06-26T07:49:17;32.50;97.90
3086;DHT22;52812;48.960;9.108;2023-06-26T07:51:43;32.40;97.50
3086;DHT22;52812;48.960;9.108;2023-06-26T07:54:08;32.30;95.80
3086;DHT22;52812;48.960;9.108;2023-06-26T07:57:01;31.70;96.00
3086;DHT22;52812;48.960;9.108;2023-06-26T07:59:29;31.70;96.40
3086;DHT22;52812;48.960;9.108;2023-06-26T08:01:56;31.70;96.20
3086;DHT22;52812;48.960;9.108;2023-06-26T08:04:23;32.10;96.10
3086;DHT22;52812;48.960;9.108;2023-06-26T08:06:51;32.40;95.80
3086;DHT22;52812;48.960;9.108;2023-06-26T08:09:18;32.40;95.40
3086;DHT22;52812;48.960;9.108;2023-06-26T08:11:44;32.70;96.20
3086;DHT22;52812;48.960;9.108;2023-06-26T08:14:10;32.70;95.90
3086;DHT22;52812;48.960;9.108;2023-06-26T08:16:40;32.30;95.20
3086;DHT22;52812;48.960;9.108;2023-06-26T08:19:07;32.70;94.80
3086;DHT22;52812;48.960;9.108;2023-06-26T08:21:33;32.90;95.90
3086;DHT22;52812;48.960;9.108;2023-06-26T08:23:58;33.20;95.60
3086;DHT22;52812;48.960;9.108;2023-06-26T08:26:24;33.50;94.40
3086;DHT22;52812;48.960;9.108;2023-06-26T08:28:50;33.20;94.10
3086;DHT22;52812;48.960;9.108;2023-06-26T08:31:16;32.90;94.40
3086;DHT22;52812;48.960;9.108;2023-06-26T08:33:42;33.30;95.00
3086;DHT22;52812;48.960;9.108;2023-06-26T08:36:07;33.30;94.30
3086;DHT22;52812;48.960;9.108;2023-06-26T08:38:33;33.30;94.40
3086;DHT22;52812;48.960;9.108;2023-06-26T08:40:59;33.10;94.50
3086;DHT22;52812;48.960;9.108;2023-06-26T08:43:25;33.20;94.40
3086;DHT22;52812;48.960;9.108;2023-06-26T08:45:52;33.30;94.60
3086;DHT22;52812;48.960;9.108;2023-06-26T08:48:18;33.30;94.70
3086;DHT22;52812;48.960;9.108;2023-06-26T08:50:48;33.30;95.50
3086;DHT22;52812;48.960;9.108;2023-06-26T08:53:39;33.30;93.30
3086;DHT22;52812;48.960;9.108;2023-06-26T08:56:07;33.30;93.00
3086;DHT22;52812;48.960;9.108;2023-06-26T08:58:32;33.40;93.40
3086;DHT22;52812;48.960;9.108;2023-06-26T09:00:59;33.30;94.10
3086;DHT22;52812;48.960;9.108;2023-06-26T09:03:26;33.50;93.80
3086;DHT22;52812;48.960;9.108;2023-06-26T09:05:51;33.60;94.10
3086;DHT22;52812;48.960;9.108;2023-06-26T09:08:17;33.50;92.80
3086;DHT22;52812;48.960;9.108;2023-06-26T09:10:42;33.40;93.30
3086;DHT22;52812;48.960;9.108;2023-06-26T09:13:08;33.20;93.60
3086;DHT22;52812;48.960;9.108;2023-06-26T09:15:44;33.00;93.20
3086;DHT22;52812;48.960;9.108;2023-06-26T09:18:10;32.80;92.60
3086;DHT22;52812;48.960;9.108;2023-06-26T09:20:36;32.00;92.80
3086;DHT22;52812;48.960;9.108;2023-06-26T09:25:29;31.50;94.10
3086;DHT22;52812;48.960;9.108;2023-06-26T09:27:56;31.50;94.60
3086;DHT22;52812;48.960;9.108;2023-06-26T09:30:22;32.00;95.00
3086;DHT22;52812;48.960;9.108;2023-06-26T09:32:48;32.00;94.50
3086;DHT22;52812;48.960;9.108;2023-06-26T09:35:15;31.90;94.50
3086;DHT22;52812;48.960;9.108;2023-06-26T09:37:40;31.90;94.70
3086;DHT22;52812;48.960;9.108;2023-06-26T09:40:06;31.80;94.70
3086;DHT22;52812;48.960;9.108;2023-06-26T09:42:32;31.50;95.00
3086;DHT22;52812;48.960;9.108;2023-06-26T09:44:58;31.40;94.80
3086;DHT22;52812;48.960;9.108;2023-06-26T09:47:24;31.30;94.80
3086;DHT22;52812;48.960;9.108;2023-06-26T09:49:50;31.30;95.10
3086;DHT22;52812;48.960;9.108;2023-06-26T09:52:18;30.90;95.00
3086;DHT22;52812;48.960;9.108;2023-06-26T09:54:45;30.80;95.30
3086;DHT22;52812;48.960;9.108;2023-06-26T09:57:13;30.90;95.80
3086;DHT22;52812;48.960;9.108;2023-06-26T09:59:41;30.90;95.20
3086;DHT22;52812;48.960;9.108;2023-06-26T10:02:07;30.60;95.60
3086;DHT22;52812;48.960;9.108;2023-06-26T10:04:35;30.60;95.30
3086;DHT22;52812;48.960;9.108;2023-06-26T10:07:04;30.60;95.10
3086;DHT22;52812;48.960;9.108;2023-06-26T10:09:30;30.30;94.60
3086;DHT22;52812;48.960;9.108;2023-06-26T10:12:06;30.40;95.10
3086;DHT22;52812;48.960;9.108;2023-06-26T10:14:35;30.20;95.20
3086;DHT22;52812;48.960;9.108;2023-06-26T10:17:05;30.10;95.90
3086;DHT22;52812;48.960;9.108;2023-06-26T10:19:33;30.30;95.30
3086;DHT22;52812;48.960;9.108;2023-06-26T10:22:00;30.30;95.40
3086;DHT22;52812;48.960;9.108;2023-06-26T10:24:29;30.10;96.30
3086;DHT22;52812;48.960;9.108;2023-06-26T10:27:02;30.40;96.40
3086;DHT22;52812;48.960;9.108;2023-06-26T10:29:30;30.40;95.80
3086;DHT22;52812;48.960;9.108;2023-06-26T10:31:58;30.20;95.90
3086;DHT22;52812;48.960;9.108;2023-06-26T10:34:25;29.80;96.30
3086;DHT22;52812;48.960;9.108;2023-06-26T10:37:04;29.60;97.10
3086;DHT22;52812;48.960;9.108;2023-06-26T10:42:12;30.10;97.50
3086;DHT22;52812;48.960;9.108;2023-06-26T10:44:43;30.20;97.80
3086;DHT22;52812;48.960;9.108;2023-06-26T10:47:09;30.10;97.10
3086;DHT22;52812;48.960;9.108;2023-06-26T10:49:36;30.10;97.40
3086;DHT22;52812;48.960;9.108;2023-06-26T10:52:02;30.00;98.70
3086;DHT22;52812;48.960;9.108;2023-06-26T10:54:32;30.50;98.90
3086;DHT22;52812;48.960;9.108;2023-06-26T10:56:58;30.70;97.50
3086;DHT22;52812;48.960;9.108;2023-06-26T10:59:27;30.20;97.60
3086;DHT22;52812;48.960;9.108;2023-06-26T11:02:00;30.00;98.00
3086;DHT22;52812;48.960;9.108;2023-06-26T11:04:37;30.00;99.20
3086;DHT22;52812;48.960;9.108;2023-06-26T11:07:23;30.40;98.50
3086;DHT22;52812;48.960;9.108;2023-06-26T11:10:07;30.60;98.80
3086;DHT22;52812;48.960;9.108;2023-06-26T11:15:19;30.40;98.50
3086;DHT22;52812;48.960;9.108;2023-06-26T11:17:45;30.40;99.00
3086;DHT22;52812;48.960;9.108;2023-06-26T11:20:15;30.60;98.40
3086;DHT22;52812;48.960;9.108;2023-06-26T11:22:42;30.00;99.10
3086;DHT22;52812;48.960;9.108;2023-06-26T11:25:08;29.70;99.30
3086;DHT22;52812;48.960;9.108;2023-06-26T11:27:44;29.90;99.90
3086;DHT22;52812;48.960;9.108;2023-06-26T11:30:11;30.10;99.90
3086;DHT22;52812;48.960;9.108;2023-06-26T11:32:37;30.00;99.30
3086;DHT22;52812;48.960;9.108;2023-06-26T11:35:03;29.90;99.90
3086;DHT22;52812;48.960;9.108;2023-06-26T11:37:33;30.10;99.50
3086;DHT22;52812;48.960;9.108;2023-06-26T11:39:59;30.10;99.60
3086;DHT22;52812;48.960;9.108;2023-06-26T11:42:24;29.70;99.90
3086;DHT22;52812;48.960;9.108;2023-06-26T11:44:51;29.80;99.90
3086;DHT22;52812;48.960;9.108;2023-06-26T11:47:18;29.50;99.60
3086;DHT22;52812;48.960;9.108;2023-06-26T11:49:45;29.50;99.90
3086;DHT22;52812;48.960;9.108;2023-06-26T11:52:11;29.40;99.90
3086;DHT22;52812;48.960;9.108;2023-06-26T11:54:36;29.50;99.90
3086;DHT22;52812;48.960;9.108;2023-06-26T11:57:03;29.60;99.90
3086;DHT22;52812;48.960;9.108;2023-06-26T11:59:34;29.80;99.90
3086;DHT22;52812;48.960;9.108;2023-06-26T12:02:09;29.90;99.90
3086;DHT22;52812;48.960;9.108;2023-06-26T12:04:37;29.80;99.90
3086;DHT22;52812;48.960;9.108;2023-06-26T12:07:05;29.50;99.90
3086;DHT22;52812;48.960;9.108;2023-06-26T12:09:33;29.50;99.90
3086;DHT22;52812;48.960;9.108;2023-06-26T12:11:59;29.10;99.90
3086;DHT22;52812;48.960;9.108;2023-06-26T12:14:26;29.00;99.90
3086;DHT22;52812;48.960;9.108;2023-06-26T12:16:54;28.90;99.90
3086;DHT22;52812;48.960;9.108;2023-06-26T12:19:24;29.20;99.90
3086;DHT22;52812;48.960;9.108;2023-06-26T12:21:50;29.30;99.90
3086;DHT22;52812;48.960;9.108;2023-06-26T12:24:22;29.20;99.90
3086;DHT22;52812;48.960;9.108;2023-06-26T12:26:54;29.40;99.90
3086;DHT22;52812;48.960;9.108;2023-06-26T12:29:24;29.50;99.90
3086;DHT22;52812;48.960;9.108;2023-06-26T12:31:54;29.40;99.90
3086;DHT22;52812;48.960;9.108;2023-06-26T12:34:21;29.00;99.90
3086;DHT22;52812;48.960;9.108;2023-06-26T12:36:50;29.10;99.90
3086;DHT22;52812;48.960;9.108;2023-06-26T12:39:25;29.20;99.90
3086;DHT22;52812;48.960;9.108;2023-06-26T12:41:54;29.20;99.90
3086;DHT22;52812;48.960;9.108;2023-06-26T12:44:21;29.30;99.90
3086;DHT22;52812;48.960;9.108;2023-06-26T12:46:48;29.40;99.90
3086;DHT22;52812;48.960;9.108;2023-06-26T12:49:14;29.50;99.90
3086;DHT22;52812;48.960;9.108;2023-06-26T12:51:40;29.50;99.90
3086;DHT22;52812;48.960;9.108;2023-06-26T12:54:05;29.40;99.90
3086;DHT22;52812;48.960;9.108;2023-06-26T12:56:31;29.40;99.90
3086;DHT22;52812;48.960;9.108;2023-06-26T12:58:56;29.20;99.90
3086;DHT22;52812;48.960;9.108;2023-06-26T13:01:22;29.10;99.60
3086;DHT22;52812;48.960;9.108;2023-06-26T13:03:50;29.20;99.90
3086;DHT22;52812;48.960;9.108;2023-06-26T13:06:16;29.50;99.90
3086;DHT22;52812;48.960;9.108;2023-06-26T13:08:42;29.40;99.90
3086;DHT22;52812;48.960;9.108;2023-06-26T13:11:08;29.60;98.50
3086;DHT22;52812;48.960;9.108;2023-06-26T13:13:34;29.40;97.40
3086;DHT22;52812;48.960;9.108;2023-06-26T13:16:00;29.40;97.70
3086;DHT22;52812;48.960;9.108;2023-06-26T13:18:25;29.10;97.60
3086;DHT22;52812;48.960;9.108;2023-06-26T13:20:51;29.20;97.20
3086;DHT22;52812;48.960;9.108;2023-06-26T13:23:17;29.20;97.40
3086;DHT22;52812;48.960;9.108;2023-06-26T13:25:43;29.20;97.30
3086;DHT22;52812;48.960;9.108;2023-06-26T13:28:09;29.00;96.80
3086;DHT22;52812;48.960;9.108;2023-06-26T13:30:35;28.80;96.40
3086;DHT22;52812;48.960;9.108;2023-06-26T13:33:01;28.90;96.00
3086;DHT22;52812;48.960;9.108;2023-06-26T13:35:26;28.90;95.80
3086;DHT22;52812;48.960;9.108;2023-06-26T13:37:52;28.90;96.80
3086;DHT22;52812;48.960;9.108;2023-06-26T13:40:17;28.90;95.90
3086;DHT22;52812;48.960;9.108;2023-06-26T13:42:43;29.00;96.40
3086;DHT22;52812;48.960;9.108;2023-06-26T13:45:09;28.90;96.20
3086;DHT22;52812;48.960;9.108;2023-06-26T13:47:35;29.00;96.40
3086;DHT22;52812;48.960;9.108;2023-06-26T13:50:03;28.90;95.00
3086;DHT22;52812;48.960;9.108;2023-06-26T13:52:29;29.00;95.40
3086;DHT22;52812;48.960;9.108;2023-06-26T13:54:55;29.00;95.70
3086;DHT22;52812;48.960;9.108;2023-06-26T13:57:20;29.00;95.10
3086;DHT22;52812;48.960;9.108;2023-06-26T13:59:47;28.90;95.00
3086;DHT22;52812;48.960;9.108;2023-06-26T14:02:13;28.90;95.30
3086;DHT22;52812;48.960;9.108;2023-06-26T14:04:39;28.80;95.60
3086;DHT22;52812;48.960;9.108;2023-06-26T14:07:05;29.00;95.80
3086;DHT22;52812;48.960;9.108;2023-06-26T14:09:32;29.10;96.20
3086;DHT22;52812;48.960;9.108;2023-06-26T14:11:58;29.00;95.80
3086;DHT22;52812;48.960;9.108;2023-06-26T14:14:23;29.10;95.90
3086;DHT22;52812;48.960;9.108;2023-06-26T14:16:49;28.90;95.00
3086;DHT22;52812;48.960;9.108;2023-06-26T14:19:16;28.90;95.40
3086;DHT22;52812;48.960;9.108;2023-06-26T14:21:43;28.90;96.00
3086;DHT22;52812;48.960;9.108;2023-06-26T14:24:08;29.00;95.60
3086;DHT22;52812;48.960;9.108;2023-06-26T14:26:34;29.00;95.60
3086;DHT22;52812;48.960;9.108;2023-06-26T14:29:02;28.90;95.20
3086;DHT22;52812;48.960;9.108;2023-06-26T14:31:28;29.00;95.70
3086;DHT22;52812;48.960;9.108;2023-06-26T14:33:53;28.80;95.80
3086;DHT22;52812;48.960;9.108;2023-06-26T14:36:19;28.50;95.50
3086;DHT22;52812;48.960;9.108;2023-06-26T14:38:45;28.60;95.70
3086;DHT22;52812;48.960;9.108;2023-06-26T14:41:11;28.70;96.10
3086;DHT22;52812;48.960;9.108;2023-06-26T14:43:37;28.70;95.70
3086;DHT22;52812;48.960;9.108;2023-06-26T14:46:03;28.80;95.20
3086;DHT22;52812;48.960;9.108;2023-06-26T14:48:28;28.70;94.80
3086;DHT22;52812;48.960;9.108;2023-06-26T14:50:54;28.70;95.10
3086;DHT22;52812;48.960;9.108;2023-06-26T14:53:19;28.90;95.10
3086;DHT22;52812;48.960;9.108;2023-06-26T14:55:45;29.00;95.70
3086;DHT22;52812;48.960;9.108;2023-06-26T14:58:11;28.80;94.70
3086;DHT22;52812;48.960;9.108;2023-06-26T15:00:36;28.80;95.10
3086;DHT22;52812;48.960;9.108;2023-06-26T15:03:02;28.80;95.00
3086;DHT22;52812;48.960;9.108;2023-06-26T15:05:27;28.80;95.10
3086;DHT22;52812;48.960;9.108;2023-06-26T15:07:53;28.70;95.40
3086;DHT22;52812;48.960;9.108;2023-06-26T15:10:18;28.70;95.50
3086;DHT22;52812;48.960;9.108;2023-06-26T15:12:44;28.60;95.10
3086;DHT22;52812;48.960;9.108;2023-06-26T15:15:09;28.60;94.40
3086;DHT22;52812;48.960;9.108;2023-06-26T15:17:35;28.50;94.50
3086;DHT22;52812;48.960;9.108;2023-06-26T15:20:01;28.50;94.90
3086;DHT22;52812;48.960;9.108;2023-06-26T15:22:27;28.60;94.90
3086;DHT22;52812;48.960;9.108;2023-06-26T15:24:53;28.40;95.00
3086;DHT22;52812;48.960;9.108;2023-06-26T15:27:19;28.30;94.80
3086;DHT22;52812;48.960;9.108;2023-06-26T15:29:44;28.20;94.90
3086;DHT22;52812;48.960;9.108;2023-06-26T15:32:10;28.00;94.50
3086;DHT22;52812;48.960;9.108;2023-06-26T15:34:35;28.00;94.60
3086;DHT22;52812;48.960;9.108;2023-06-26T15:37:01;28.10;95.40
3086;DHT22;52812;48.960;9.108;2023-06-26T15:39:27;28.10;95.70
3086;DHT22;52812;48.960;9.108;2023-06-26T15:41:52;28.10;95.60
3086;DHT22;52812;48.960;9.108;2023-06-26T15:44:18;28.10;95.50
3086;DHT22;52812;48.960;9.108;2023-06-26T15:46:44;28.00;95.90
3086;DHT22;52812;48.960;9.108;2023-06-26T15:49:09;28.10;96.10
3086;DHT22;52812;48.960;9.108;2023-06-26T15:51:35;28.10;95.60
3086;DHT22;52812;48.960;9.108;2023-06-26T15:54:03;28.10;94.80